createdAt,value
2019-06-07T00:00:40.320Z,12.50
2019-06-07T00:03:05.575Z,12.65
2019-06-07T00:05:31.407Z,12.70
2019-06-07T00:08:07.158Z,12.87
2019-06-07T00:10:35.944Z,12.42
2019-06-07T00:12:52.862Z,12.13
2019-06-07T00:15:26.879Z,12.50
2019-06-07T00:17:46.495Z,12.73
2019-06-07T00:20:15.581Z,12.78
2019-06-07T00:22:40.698Z,12.83
2019-06-07T00:25:12.064Z,12.92
2019-06-07T00:27:35.703Z,13.09
2019-06-07T00:30:29.844Z,13.25
2019-06-07T00:32:29.430Z,13.25
2019-06-07T00:34:55.298Z,13.31
2019-06-07T00:37:25.138Z,13.34
2019-06-07T00:40:12.815Z,13.15
2019-06-07T00:42:17.478Z,13.24
2019-06-07T00:44:44.363Z,13.20
2019-06-07T00:47:10.675Z,13.25
2019-06-07T00:49:41.472Z,13.19
2019-06-07T00:52:04.425Z,12.73
2019-06-07T00:54:30.252Z,12.80
2019-06-07T00:56:56.110Z,12.90
2019-06-07T00:59:28.933Z,13.13
2019-06-07T01:01:49.899Z,13.01
2019-06-07T01:04:19.458Z,12.98
2019-06-07T01:06:43.495Z,12.81
2019-06-07T01:09:09.357Z,12.94
2019-06-07T01:11:35.185Z,12.83
2019-06-07T01:14:01.433Z,13.10
2019-06-07T01:16:27.320Z,12.94
2019-06-07T01:18:53.146Z,12.91
2019-06-07T01:21:21.723Z,13.19
2019-06-07T01:24:08.115Z,13.16
2019-06-07T01:26:16.918Z,13.34
2019-06-07T01:28:42.254Z,13.25
2019-06-07T01:31:08.130Z,13.13
2019-06-07T01:33:50.454Z,13.33
2019-06-07T01:36:01.709Z,13.32
2019-06-07T01:38:29.828Z,13.36
2019-06-07T01:40:55.323Z,13.27
2019-06-07T01:43:26.101Z,13.17
2019-06-07T01:45:48.894Z,13.21
2019-06-07T01:48:17.654Z,12.76
2019-06-07T01:50:42.927Z,12.91
2019-06-07T01:53:08.792Z,12.82
2019-06-07T01:55:34.606Z,12.82
2019-06-07T01:58:00.451Z,12.65
2019-06-07T02:00:31.502Z,12.69
2019-06-07T02:02:54.470Z,12.58
2019-06-07T02:05:21.529Z,12.70
2019-06-07T02:07:48.082Z,12.42
2019-06-07T02:10:14.324Z,12.64
2019-06-07T02:12:43.538Z,12.52
2019-06-07T02:15:08.568Z,12.56
2019-06-07T02:17:34.711Z,12.83
2019-06-07T02:20:00.651Z,13.01
2019-06-07T02:22:29.445Z,12.78
2019-06-07T02:25:34.396Z,12.73
2019-06-07T02:27:24.661Z,12.89
2019-06-07T02:29:49.764Z,12.75
2019-06-07T02:32:15.619Z,12.86
2019-06-07T02:34:41.474Z,12.74
2019-06-07T02:37:07.316Z,12.93
2019-06-07T02:39:38.129Z,13.00
2019-06-07T02:42:01.272Z,12.98
2019-06-07T02:44:31.829Z,12.77
2019-06-07T02:46:54.914Z,12.75
2019-06-07T02:49:20.718Z,12.90
2019-06-07T02:51:46.572Z,13.05
2019-06-07T02:54:12.409Z,13.23
2019-06-07T02:56:54.011Z,13.07
2019-06-07T02:59:06.096Z,12.94
2019-06-07T03:01:39.467Z,12.94
2019-06-07T03:04:00.895Z,13.22
2019-06-07T03:06:31.833Z,13.24
2019-06-07T03:08:55.408Z,13.19
2019-06-07T03:11:22.766Z,13.47
2019-06-07T03:13:49.000Z,13.19
2019-06-07T03:16:19.884Z,13.07
2019-06-07T03:18:56.907Z,13.05
2019-06-07T03:21:31.482Z,13.19
2019-06-07T03:23:57.942Z,12.88
2019-06-07T03:26:25.043Z,12.77
2019-06-07T03:28:51.173Z,12.70
2019-06-07T03:31:17.071Z,12.60
2019-06-07T03:33:45.565Z,12.48
2019-06-07T03:36:23.288Z,12.70
2019-06-07T03:38:39.928Z,12.69
2019-06-07T03:41:06.070Z,12.91
2019-06-07T03:43:34.960Z,13.09
2019-06-07T03:45:59.725Z,13.05
2019-06-07T03:48:25.559Z,13.01
2019-06-07T03:51:04.166Z,13.02
2019-06-07T03:53:19.228Z,13.06
2019-06-07T03:55:45.233Z,13.16
2019-06-07T03:58:31.312Z,12.97
2019-06-07T04:00:42.752Z,13.01
2019-06-07T04:03:06.722Z,13.12
2019-06-07T04:05:37.100Z,13.28
2019-06-07T04:08:00.358Z,13.29
2019-06-07T04:10:44.856Z,13.51
2019-06-07T04:12:54.026Z,13.44
2019-06-07T04:15:19.892Z,13.51
2019-06-07T04:18:01.453Z,13.60
2019-06-07T04:20:13.482Z,13.55
2019-06-07T04:22:42.442Z,13.58
2019-06-07T04:25:09.385Z,13.79
2019-06-07T04:27:37.716Z,13.63
2019-06-07T04:30:08.269Z,13.74
2019-06-07T04:32:37.143Z,13.64
2019-06-07T04:35:03.737Z,13.75
2019-06-07T04:37:30.895Z,13.59
2019-06-07T04:39:58.521Z,13.72
2019-06-07T04:42:24.477Z,13.70
2019-06-07T04:44:50.516Z,13.83
2019-06-07T04:47:17.696Z,13.86
2019-06-07T04:49:46.331Z,13.80
2019-06-07T04:52:12.213Z,13.74
2019-06-07T04:54:45.221Z,13.76
2019-06-07T04:57:05.799Z,13.81
2019-06-07T05:00:06.600Z,13.89
2019-06-07T05:01:59.416Z,13.90
2019-06-07T05:04:25.270Z,14.07
2019-06-07T05:06:51.117Z,13.97
2019-06-07T05:09:16.963Z,14.14
2019-06-07T05:11:44.984Z,13.74
2019-06-07T05:14:10.540Z,14.05
2019-06-07T05:16:38.834Z,14.15
2019-06-07T05:19:04.280Z,14.25
2019-06-07T05:21:49.111Z,14.42
2019-06-07T05:24:07.557Z,14.45
2019-06-07T05:26:25.740Z,14.32
2019-06-07T05:28:51.582Z,14.17
2019-06-07T05:31:17.423Z,14.32
2019-06-07T05:33:43.749Z,14.52
2019-06-07T05:36:09.767Z,14.23
2019-06-07T05:38:36.729Z,14.38
2019-06-07T05:41:03.374Z,14.63
2019-06-07T05:43:29.314Z,14.69
2019-06-07T05:45:55.393Z,14.76
2019-06-07T05:48:21.398Z,15.08
2019-06-07T05:50:56.036Z,15.28
2019-06-07T05:53:15.038Z,15.21
2019-06-07T05:55:44.154Z,15.02
2019-06-07T05:58:08.785Z,15.15
2019-06-07T06:00:36.362Z,15.34
2019-06-07T06:03:05.836Z,15.31
2019-06-07T06:05:34.214Z,15.53
2019-06-07T06:07:57.901Z,15.73
2019-06-07T06:10:23.761Z,15.76
2019-06-07T06:12:51.647Z,15.63
2019-06-07T06:15:18.260Z,15.81
2019-06-07T06:17:47.947Z,16.34
2019-06-07T06:20:12.250Z,16.57
2019-06-07T06:22:41.286Z,16.71
2019-06-07T06:30:07.282Z,17.20
2019-06-07T06:32:42.997Z,17.33
2019-06-07T06:35:00.913Z,17.70
2019-06-07T06:37:26.754Z,17.64
2019-06-07T06:39:52.592Z,17.39
2019-06-07T06:42:18.558Z,17.97
2019-06-07T06:44:46.422Z,18.18
2019-06-07T06:47:12.143Z,18.06
2019-06-07T06:49:40.080Z,18.18
2019-06-07T06:52:05.756Z,18.06
2019-06-07T06:54:40.892Z,18.07
2019-06-07T06:57:17.995Z,18.33
2019-06-07T06:59:38.868Z,18.28
2019-06-07T07:01:55.071Z,18.31
2019-06-07T07:04:21.724Z,18.26
2019-06-07T07:06:48.045Z,18.61
2019-06-07T07:09:13.957Z,18.93
2019-06-07T07:11:55.269Z,19.02
2019-06-07T07:14:07.532Z,19.21
2019-06-07T07:16:33.386Z,19.11
2019-06-07T07:18:59.222Z,18.90
2019-06-07T07:21:25.074Z,18.70
2019-06-07T07:24:14.783Z,18.80
2019-06-07T07:26:18.787Z,19.10
2019-06-07T07:28:46.590Z,19.45
2019-06-07T07:31:12.574Z,19.33
2019-06-07T07:34:23.922Z,19.35
2019-06-07T07:36:28.204Z,19.85
2019-06-07T07:38:33.939Z,20.23
2019-06-07T07:41:14.524Z,20.17
2019-06-07T07:43:27.539Z,20.29
2019-06-07T07:45:59.198Z,20.20
2019-06-07T07:48:21.115Z,20.54
2019-06-07T07:50:49.792Z,20.50
2019-06-07T07:53:14.720Z,20.51
2019-06-07T07:55:40.543Z,20.87
2019-06-07T07:58:06.606Z,20.94
2019-06-07T08:01:09.709Z,20.95
2019-06-07T08:03:04.379Z,20.59
2019-06-07T08:05:42.062Z,21.00
2019-06-07T08:08:00.385Z,21.27
2019-06-07T08:10:23.866Z,21.40
2019-06-07T08:13:12.901Z,21.08
2019-06-07T08:15:17.570Z,21.28
2019-06-07T08:17:43.393Z,21.33
2019-06-07T08:20:09.256Z,21.45
2019-06-07T08:22:35.105Z,21.82
2019-06-07T08:25:04.187Z,22.05
2019-06-07T08:27:28.684Z,21.94
2019-06-07T08:30:15.920Z,21.99
2019-06-07T08:32:22.268Z,22.25
2019-06-07T08:34:49.915Z,22.10
2019-06-07T08:37:15.870Z,22.04
2019-06-07T08:39:41.738Z,22.11
2019-06-07T08:42:17.880Z,22.59
2019-06-07T08:44:35.361Z,22.67
2019-06-07T08:47:19.474Z,22.43
2019-06-07T08:49:29.003Z,22.20
2019-06-07T08:52:03.031Z,22.18
2019-06-07T08:54:23.480Z,22.53
2019-06-07T08:56:52.723Z,22.44
2019-06-07T08:59:17.512Z,22.50
2019-06-07T09:01:43.385Z,22.34
2019-06-07T09:04:11.124Z,22.68
2019-06-07T09:09:06.709Z,22.79
2019-06-07T09:11:32.550Z,22.62
2019-06-07T09:14:02.226Z,22.82
2019-06-07T09:16:26.146Z,22.77
2019-06-07T09:18:51.981Z,22.90
2019-06-07T09:21:18.061Z,22.82
2019-06-07T09:23:43.903Z,22.89
2019-06-07T09:26:17.635Z,22.92
2019-06-07T09:28:37.808Z,23.32
2019-06-07T09:31:09.514Z,23.23
2019-06-07T09:33:31.467Z,23.47
2019-06-07T09:35:58.671Z,23.43
2019-06-07T09:38:26.658Z,23.55
2019-06-07T09:40:52.864Z,23.49
2019-06-07T09:44:00.067Z,23.26
2019-06-07T09:45:46.666Z,23.58
2019-06-07T09:48:16.482Z,23.43
2019-06-07T09:50:40.275Z,23.75
2019-06-07T09:53:20.076Z,23.65
2019-06-07T09:55:33.978Z,23.52
2019-06-07T09:58:09.079Z,23.40
2019-06-07T10:00:40.585Z,23.77
2019-06-07T10:02:55.684Z,23.91
2019-06-07T10:05:21.523Z,23.90
2019-06-07T10:08:02.450Z,24.49
2019-06-07T10:12:42.971Z,25.05
2019-06-07T10:15:09.415Z,24.81
2019-06-07T10:17:35.270Z,24.95
2019-06-07T10:20:02.570Z,24.63
2019-06-07T10:22:28.868Z,25.24
2019-06-07T10:24:54.733Z,25.37
2019-06-07T10:27:20.566Z,25.51
2019-06-07T10:29:46.379Z,25.16
2019-06-07T10:32:12.221Z,25.30
2019-06-07T10:34:38.067Z,25.83
2019-06-07T10:37:07.598Z,25.65
2019-06-07T10:39:44.948Z,25.43
2019-06-07T10:42:00.826Z,26.06
2019-06-07T10:44:26.779Z,26.14
2019-06-07T10:46:52.624Z,26.29
2019-06-07T10:49:18.478Z,26.12
2019-06-07T10:51:44.319Z,26.31
2019-06-07T10:54:24.117Z,26.33
2019-06-07T10:56:37.933Z,26.33
2019-06-07T10:59:05.186Z,26.11
2019-06-07T11:01:31.242Z,26.07
2019-06-07T11:03:57.075Z,26.44
2019-06-07T11:06:22.957Z,26.23
2019-06-07T11:08:49.323Z,26.44
2019-06-07T11:11:15.182Z,26.63
2019-06-07T11:13:41.024Z,26.44
2019-06-07T11:16:07.045Z,26.46
2019-06-07T11:18:32.992Z,26.37
2019-06-07T11:20:58.841Z,26.37
2019-06-07T11:23:24.668Z,26.30
2019-06-07T11:25:50.525Z,27.06
2019-06-07T11:28:16.381Z,26.64
2019-06-07T11:30:42.253Z,26.80
2019-06-07T11:33:08.493Z,26.40
2019-06-07T11:35:34.454Z,26.64
2019-06-07T11:38:00.284Z,27.08
2019-06-07T11:40:33.897Z,27.34
2019-06-07T11:42:53.911Z,27.60
2019-06-07T11:45:19.780Z,27.69
2019-06-07T11:47:45.611Z,27.24
2019-06-07T11:50:11.917Z,27.50
2019-06-07T11:52:37.784Z,27.05
2019-06-07T11:55:06.882Z,26.17
2019-06-07T11:57:32.741Z,26.71
2019-06-07T11:59:58.580Z,27.08
2019-06-07T12:02:24.439Z,27.09
2019-06-07T12:04:50.277Z,26.56
2019-06-07T12:07:17.628Z,26.45
2019-06-07T12:09:56.001Z,26.00
2019-06-07T12:12:12.599Z,26.59
2019-06-07T12:14:38.473Z,26.06
2019-06-07T12:17:04.314Z,26.13
2019-06-07T12:19:30.202Z,26.06
2019-06-07T12:21:56.055Z,26.29
2019-06-07T12:24:21.917Z,26.81
2019-06-07T12:26:47.760Z,26.12
2019-06-07T12:29:14.868Z,26.19
2019-06-07T12:31:41.060Z,25.91
2019-06-07T12:34:06.939Z,26.87
2019-06-07T12:36:32.847Z,27.11
2019-06-07T12:38:58.703Z,26.81
2019-06-07T12:41:24.569Z,27.66
2019-06-07T12:43:50.450Z,28.52
2019-06-07T12:46:22.395Z,28.34
2019-06-07T12:48:44.030Z,28.49
2019-06-07T12:51:09.891Z,28.49
2019-06-07T12:53:35.734Z,28.30
2019-06-07T12:56:01.610Z,28.36
2019-06-07T12:58:34.470Z,27.87
2019-06-07T13:00:55.181Z,28.33
2019-06-07T13:03:22.488Z,28.24
2019-06-07T13:05:48.479Z,28.48
2019-06-07T13:08:15.515Z,28.63
2019-06-07T13:10:41.490Z,27.83
2019-06-07T13:13:07.354Z,27.99
2019-06-07T13:15:33.219Z,28.19
2019-06-07T13:17:59.073Z,27.77
2019-06-07T13:20:25.058Z,28.20
2019-06-07T13:22:50.910Z,28.08
2019-06-07T13:25:18.452Z,29.00
2019-06-07T13:27:44.470Z,29.36
2019-06-07T13:30:11.200Z,29.02
2019-06-07T13:32:37.179Z,29.03
2019-06-07T13:35:07.558Z,29.34
2019-06-07T13:37:33.574Z,29.29
2019-06-07T13:39:59.667Z,29.44
2019-06-07T13:42:26.810Z,29.30
2019-06-07T13:44:52.671Z,28.97
2019-06-07T13:47:18.924Z,29.12
2019-06-07T13:49:44.991Z,29.65
2019-06-07T13:52:10.875Z,29.36
2019-06-07T13:54:36.715Z,29.33
2019-06-07T13:57:03.285Z,29.57
2019-06-07T13:59:29.365Z,29.65
2019-06-07T14:01:55.247Z,29.81
2019-06-07T14:04:21.108Z,29.61
2019-06-07T14:06:46.984Z,29.05
2019-06-07T14:09:12.840Z,29.00
2019-06-07T14:11:49.978Z,29.46
2019-06-07T14:14:06.513Z,29.10
2019-06-07T14:16:32.430Z,29.73
2019-06-07T14:18:58.409Z,30.09
2019-06-07T14:21:24.638Z,29.76
2019-06-07T14:23:50.548Z,29.82
2019-06-07T14:26:16.433Z,29.30
2019-06-07T14:28:42.280Z,29.63
2019-06-07T14:31:08.165Z,29.60
2019-06-07T14:33:34.198Z,29.91
2019-06-07T14:36:00.168Z,29.29
2019-06-07T14:38:27.310Z,29.87
2019-06-07T14:40:53.345Z,29.02
2019-06-07T14:43:19.264Z,29.65
2019-06-07T14:45:45.131Z,28.25
2019-06-07T14:48:11.008Z,27.90
2019-06-07T14:50:36.889Z,28.10
2019-06-07T14:53:06.750Z,28.90
2019-06-07T14:55:33.012Z,28.98
2019-06-07T14:57:58.879Z,29.18
2019-06-07T15:00:38.903Z,29.29
2019-06-07T15:03:04.880Z,29.10
2019-06-07T15:05:31.291Z,29.11
2019-06-07T15:07:58.882Z,29.12
2019-06-07T15:10:24.687Z,28.87
2019-06-07T15:12:50.541Z,29.07
2019-06-07T15:15:16.505Z,29.63
2019-06-07T15:17:42.492Z,29.13
2019-06-07T15:20:08.559Z,29.51
2019-06-07T15:22:34.523Z,29.71
2019-06-07T15:25:00.521Z,29.16
2019-06-07T15:27:27.224Z,29.31
2019-06-07T15:29:53.111Z,29.52
2019-06-07T15:32:18.962Z,28.90
2019-06-07T15:34:44.805Z,29.19
2019-06-07T15:37:10.665Z,28.74
2019-06-07T15:39:36.667Z,28.97
2019-06-07T15:42:03.516Z,29.02
2019-06-07T15:44:29.407Z,29.11
2019-06-07T15:46:55.567Z,28.69
2019-06-07T15:49:21.672Z,28.80
2019-06-07T15:51:47.537Z,29.37
2019-06-07T15:54:13.381Z,28.81
2019-06-07T15:56:39.240Z,28.48
2019-06-07T15:59:05.091Z,28.42
2019-06-07T16:01:31.209Z,28.55
2019-06-07T16:03:57.215Z,28.31
2019-06-07T16:06:23.108Z,28.48
2019-06-07T16:08:49.473Z,28.41
2019-06-07T16:11:15.293Z,28.08
2019-06-07T16:13:41.274Z,27.90
2019-06-07T16:16:07.187Z,27.90
2019-06-07T16:18:33.451Z,27.81
2019-06-07T16:20:59.323Z,27.71
2019-06-07T16:23:25.198Z,27.56
2019-06-07T16:25:51.076Z,27.46
2019-06-07T16:28:17.009Z,27.73
2019-06-07T16:30:42.887Z,27.67
2019-06-07T16:33:08.763Z,27.67
2019-06-07T16:35:34.980Z,27.78
2019-06-07T16:38:00.885Z,27.60
2019-06-07T16:40:26.874Z,27.23
2019-06-07T16:42:52.761Z,27.07
2019-06-07T16:45:19.165Z,27.34
2019-06-07T16:47:47.542Z,27.28
2019-06-07T16:50:14.825Z,27.09
2019-06-07T16:52:41.924Z,26.68
2019-06-07T16:55:08.722Z,26.62
2019-06-07T16:57:34.558Z,26.55
2019-06-07T17:00:00.437Z,26.53
2019-06-07T17:02:26.280Z,26.58
2019-06-07T17:04:52.113Z,26.42
2019-06-07T17:07:17.948Z,26.28
2019-06-07T17:09:45.683Z,26.57
2019-06-07T17:12:11.570Z,26.65
2019-06-07T17:14:38.338Z,26.59
2019-06-07T17:17:04.432Z,26.64
2019-06-07T17:19:30.427Z,26.73
2019-06-07T17:21:57.087Z,26.66
2019-06-07T17:24:26.580Z,26.54
2019-06-07T17:26:51.005Z,26.40
2019-06-07T17:29:16.883Z,26.36
2019-06-07T17:31:44.665Z,26.16
2019-06-07T17:34:10.535Z,26.17
2019-06-07T17:36:36.492Z,26.25
2019-06-07T17:39:05.525Z,26.42
2019-06-07T17:41:50.278Z,26.14
2019-06-07T17:44:01.335Z,26.23
2019-06-07T17:46:27.185Z,26.06
2019-06-07T17:48:53.027Z,26.18
2019-06-07T17:51:18.868Z,26.10
2019-06-07T17:53:45.830Z,25.98
2019-06-07T17:56:11.913Z,25.83
2019-06-07T17:58:37.773Z,25.71
2019-06-07T18:01:03.732Z,25.70
2019-06-07T18:03:29.620Z,25.71
2019-06-07T18:05:56.651Z,25.58
2019-06-07T18:08:23.003Z,25.54
2019-06-07T18:10:50.083Z,25.51
2019-06-07T18:13:16.004Z,25.53
2019-06-07T18:15:46.845Z,25.40
2019-06-07T18:18:13.923Z,25.49
2019-06-07T18:20:39.980Z,25.21
2019-06-07T18:23:06.050Z,25.25
2019-06-07T18:25:31.924Z,25.19
2019-06-07T18:27:58.980Z,25.14
2019-06-07T18:30:24.938Z,25.13
2019-06-07T18:32:50.878Z,25.02
2019-06-07T18:35:16.823Z,24.95
2019-06-07T18:37:42.680Z,24.91
2019-06-07T18:40:09.309Z,24.89
2019-06-07T18:42:35.169Z,24.87
2019-06-07T18:45:03.001Z,24.97
2019-06-07T18:47:28.849Z,24.98
2019-06-07T18:49:55.550Z,24.80
2019-06-07T18:52:23.387Z,24.75
2019-06-07T18:54:49.255Z,24.58
2019-06-07T18:57:15.121Z,24.61
2019-06-07T18:59:41.022Z,24.67
2019-06-07T19:02:06.994Z,24.34
2019-06-07T19:04:32.884Z,24.35
2019-06-07T19:06:58.733Z,24.32
2019-06-07T19:09:24.648Z,24.23
2019-06-07T19:11:50.912Z,24.23
2019-06-07T19:14:16.835Z,24.20
2019-06-07T19:16:42.745Z,24.01
2019-06-07T19:19:08.615Z,23.88
2019-06-07T19:21:34.589Z,23.95
2019-06-07T19:24:00.487Z,23.72
2019-06-07T19:26:26.360Z,23.62
2019-06-07T19:28:52.529Z,23.59
2019-06-07T19:31:18.500Z,23.50
2019-06-07T19:33:49.090Z,23.51
2019-06-07T19:36:12.442Z,23.47
2019-06-07T19:38:38.466Z,23.40
2019-06-07T19:41:19.000Z,23.47
2019-06-07T19:43:32.123Z,23.38
2019-06-07T19:45:58.272Z,23.42
2019-06-07T19:48:24.312Z,23.20
2019-06-07T19:50:50.155Z,23.10
2019-06-07T19:53:16.007Z,22.91
2019-06-07T19:55:42.003Z,22.82
2019-06-07T19:58:07.882Z,22.84
2019-06-07T20:00:33.837Z,22.67
2019-06-07T20:02:59.979Z,22.77
2019-06-07T20:05:25.954Z,22.78
2019-06-07T20:07:52.710Z,22.70
2019-06-07T20:10:18.781Z,22.58
2019-06-07T20:12:44.776Z,22.52
2019-06-07T20:15:27.671Z,22.59
2019-06-07T20:17:39.034Z,22.42
2019-06-07T20:20:06.012Z,21.93
2019-06-07T20:22:31.928Z,22.36
2019-06-07T20:24:58.851Z,22.23
2019-06-07T20:27:24.903Z,22.12
2019-06-07T20:29:50.757Z,22.15
2019-06-07T20:32:16.641Z,22.14
2019-06-07T20:34:44.772Z,22.14
2019-06-07T20:37:10.737Z,22.05
2019-06-07T20:39:36.634Z,22.25
2019-06-07T20:42:03.511Z,22.20
2019-06-07T20:44:29.508Z,22.35
2019-06-07T20:46:55.498Z,22.37
2019-06-07T20:49:21.357Z,22.54
2019-06-07T20:51:47.241Z,22.43
2019-06-07T20:54:13.207Z,22.35
2019-06-07T20:56:39.102Z,21.78
2019-06-07T20:59:04.976Z,21.68
2019-06-07T21:01:30.861Z,21.52
2019-06-07T21:03:56.715Z,21.42
2019-06-07T21:06:22.623Z,22.02
2019-06-07T21:08:48.505Z,21.93
2019-06-07T21:11:15.408Z,21.68
2019-06-07T21:13:41.252Z,21.56
2019-06-07T21:16:08.243Z,21.39
2019-06-07T21:18:34.358Z,21.09
2019-06-07T21:21:00.342Z,20.55
2019-06-07T21:23:26.207Z,19.94
2019-06-07T21:25:52.082Z,19.35
2019-06-07T21:28:17.938Z,18.92
2019-06-07T21:30:43.829Z,18.66
2019-06-07T21:33:09.833Z,18.48
2019-06-07T21:35:35.679Z,18.06
2019-06-07T21:38:01.960Z,17.58
2019-06-07T21:40:27.955Z,17.03
2019-06-07T21:42:53.812Z,16.81
2019-06-07T21:45:19.697Z,16.57
2019-06-07T21:47:45.540Z,16.78
2019-06-07T21:50:12.769Z,16.44
2019-06-07T21:52:38.744Z,16.13
2019-06-07T21:55:05.297Z,16.28
2019-06-07T21:57:31.165Z,16.03
2019-06-07T21:59:57.010Z,16.11
2019-06-07T22:02:22.871Z,16.14
2019-06-07T22:04:48.698Z,16.15
2019-06-07T22:07:14.553Z,15.60
2019-06-07T22:09:40.436Z,15.52
2019-06-07T22:12:06.433Z,15.84
2019-06-07T22:14:32.262Z,15.80
2019-06-07T22:16:58.090Z,15.69
2019-06-07T22:19:23.974Z,15.96
2019-06-07T22:22:02.096Z,15.75
2019-06-07T22:24:17.587Z,15.74
2019-06-07T22:26:43.441Z,15.30
2019-06-07T22:29:10.327Z,15.28
2019-06-07T22:31:36.372Z,15.39
2019-06-07T22:34:02.647Z,15.40
2019-06-07T22:36:28.900Z,15.30
2019-06-07T22:38:54.753Z,15.53
2019-06-07T22:41:20.615Z,15.32
2019-06-07T22:43:46.616Z,15.56
2019-06-07T22:46:12.991Z,15.64
2019-06-07T22:48:38.943Z,15.48
2019-06-07T22:51:08.832Z,15.41
2019-06-07T22:53:36.512Z,15.01
2019-06-07T22:56:07.779Z,15.39
2019-06-07T22:58:33.747Z,15.31
2019-06-07T23:00:59.551Z,15.54
2019-06-07T23:03:25.429Z,15.35
2019-06-07T23:05:51.318Z,15.37
2019-06-07T23:08:17.154Z,15.25
2019-06-07T23:10:43.021Z,15.10
2019-06-07T23:13:09.297Z,15.24
2019-06-07T23:15:35.236Z,15.33
2019-06-07T23:18:01.087Z,15.30
2019-06-07T23:20:26.934Z,15.22
2019-06-07T23:22:52.863Z,15.01
2019-06-07T23:25:22.410Z,15.32
2019-06-07T23:27:46.471Z,15.11
2019-06-07T23:30:12.595Z,14.93
2019-06-07T23:32:38.450Z,14.85
2019-06-07T23:35:05.014Z,14.81
2019-06-07T23:37:30.863Z,15.03
2019-06-07T23:39:56.707Z,14.83
2019-06-07T23:42:22.574Z,14.76
2019-06-07T23:44:48.422Z,14.74
2019-06-07T23:47:17.004Z,14.67
2019-06-07T23:49:42.220Z,14.77
2019-06-07T23:52:08.054Z,14.64
2019-06-07T23:54:33.899Z,14.74
2019-06-07T23:56:59.752Z,14.57
2019-06-07T23:59:25.576Z,14.20
